sensor_id;sensor_type;location;lat;lon;timestamp;pressure;altitude;pressure_sealevel;temperature;humidity
37848;BME280;23688;33.130;-117.188;2023-06-22T00:02:18;99351.41;;;22.58;51.13
37848;BME280;23688;33.130;-117.188;2023-06-22T00:04:45;99347.44;;;22.96;49.07
37848;BME280;23688;33.130;-117.188;2023-06-22T00:07:11;99336.31;;;22.67;47.06
37848;BME280;23688;33.130;-117.188;2023-06-22T00:09:37;99347.63;;;22.82;49.03
37848;BME280;23688;33.130;-117.188;2023-06-22T00:12:04;99343.25;;;22.78;48.90
37848;BME280;23688;33.130;-117.188;2023-06-22T00:14:31;99345.16;;;22.62;48.88
37848;BME280;23688;33.130;-117.188;2023-06-22T00:16:57;99339.03;;;22.57;49.24
37848;BME280;23688;33.130;-117.188;2023-06-22T00:19:24;99335.47;;;22.61;49.25
37848;BME280;23688;33.130;-117.188;2023-06-22T00:21:51;99339.16;;;22.45;49.45
37848;BME280;23688;33.130;-117.188;2023-06-22T00:24:21;99331.97;;;22.59;51.15
37848;BME280;23688;33.130;-117.188;2023-06-22T00:26:50;99319.34;;;22.86;50.54
37848;BME280;23688;33.130;-117.188;2023-06-22T00:29:17;99315.03;;;22.76;49.73
37848;BME280;23688;33.130;-117.188;2023-06-22T00:31:44;99312.34;;;22.79;49.46
37848;BME280;23688;33.130;-117.188;2023-06-22T00:34:10;99319.34;;;22.84;49.65
37848;BME280;23688;33.130;-117.188;2023-06-22T00:36:36;99321.25;;;22.72;50.72
37848;BME280;23688;33.130;-117.188;2023-06-22T00:39:03;99314.19;;;22.74;50.95
37848;BME280;23688;33.130;-117.188;2023-06-22T00:41:34;99310.53;;;22.84;51.92
37848;BME280;23688;33.130;-117.188;2023-06-22T00:44:00;99302.53;;;22.87;51.42
37848;BME280;23688;33.130;-117.188;2023-06-22T00:46:27;99306.84;;;23.00;51.11
37848;BME280;23688;33.130;-117.188;2023-06-22T00:48:53;99316.03;;;22.65;50.97
37848;BME280;23688;33.130;-117.188;2023-06-22T00:51:23;99314.28;;;22.64;49.82
37848;BME280;23688;33.130;-117.188;2023-06-22T00:53:52;99311.44;;;22.83;51.89
37848;BME280;23688;33.130;-117.188;2023-06-22T00:56:19;99316.69;;;22.86;52.66
37848;BME280;23688;33.130;-117.188;2023-06-22T00:58:46;99314.47;;;22.46;53.95
37848;BME280;23688;33.130;-117.188;2023-06-22T01:01:13;99312.84;;;22.31;54.78
37848;BME280;23688;33.130;-117.188;2023-06-22T01:03:40;99318.88;;;22.49;51.18
37848;BME280;23688;33.130;-117.188;2023-06-22T01:06:10;99328.81;;;22.16;53.15
37848;BME280;23688;33.130;-117.188;2023-06-22T01:08:49;99313.16;;;21.87;53.53
37848;BME280;23688;33.130;-117.188;2023-06-22T01:11:28;99312.38;;;21.75;53.69
37848;BME280;23688;33.130;-117.188;2023-06-22T01:14:07;99308.03;;;21.65;52.81
37848;BME280;23688;33.130;-117.188;2023-06-22T01:16:38;99308.97;;;21.56;52.24
37848;BME280;23688;33.130;-117.188;2023-06-22T01:22:30;99315.19;;;21.51;53.72
37848;BME280;23688;33.130;-117.188;2023-06-22T01:25:12;99319.66;;;21.30;55.73
37848;BME280;23688;33.130;-117.188;2023-06-22T01:30:18;99313.38;;;21.61;52.30
37848;BME280;23688;33.130;-117.188;2023-06-22T01:32:47;99300.97;;;21.70;54.31
37848;BME280;23688;33.130;-117.188;2023-06-22T01:35:15;99310.78;;;21.50;57.91
37848;BME280;23688;33.130;-117.188;2023-06-22T01:37:42;99318.88;;;21.10;61.58
37848;BME280;23688;33.130;-117.188;2023-06-22T01:40:09;99322.50;;;20.75;65.31
37848;BME280;23688;33.130;-117.188;2023-06-22T01:42:37;99323.38;;;20.74;65.96
37848;BME280;23688;33.130;-117.188;2023-06-22T01:45:05;99319.91;;;20.61;67.41
37848;BME280;23688;33.130;-117.188;2023-06-22T01:47:32;99319.00;;;20.67;67.23
37848;BME280;23688;33.130;-117.188;2023-06-22T01:49:58;99319.03;;;20.64;66.19
37848;BME280;23688;33.130;-117.188;2023-06-22T01:52:25;99314.59;;;20.50;68.03
37848;BME280;23688;33.130;-117.188;2023-06-22T01:54:52;99324.28;;;20.55;69.01
37848;BME280;23688;33.130;-117.188;2023-06-22T01:57:18;99328.69;;;20.60;69.05
37848;BME280;23688;33.130;-117.188;2023-06-22T01:59:59;99335.72;;;20.35;70.39
37848;BME280;23688;33.130;-117.188;2023-06-22T02:02:51;99323.44;;;20.26;70.17
37848;BME280;23688;33.130;-117.188;2023-06-22T02:05:17;99341.00;;;20.27;71.88
37848;BME280;23688;33.130;-117.188;2023-06-22T02:08:09;99344.53;;;20.08;75.19
37848;BME280;23688;33.130;-117.188;2023-06-22T02:10:38;99333.97;;;20.02;75.79
37848;BME280;23688;33.130;-117.188;2023-06-22T02:13:07;99340.09;;;19.99;76.61
37848;BME280;23688;33.130;-117.188;2023-06-22T02:15:35;99341.88;;;19.94;78.09
37848;BME280;23688;33.130;-117.188;2023-06-22T02:18:02;99348.00;;;19.76;79.54
37848;BME280;23688;33.130;-117.188;2023-06-22T02:20:29;99347.94;;;19.62;80.07
37848;BME280;23688;33.130;-117.188;2023-06-22T02:22:55;99337.31;;;19.35;82.17
37848;BME280;23688;33.130;-117.188;2023-06-22T02:25:22;99334.63;;;19.18;84.23
37848;BME280;23688;33.130;-117.188;2023-06-22T02:27:48;99345.19;;;19.29;85.23
37848;BME280;23688;33.130;-117.188;2023-06-22T02:30:14;99329.44;;;19.41;85.24
37848;BME280;23688;33.130;-117.188;2023-06-22T02:32:42;99336.47;;;19.48;85.67
37848;BME280;23688;33.130;-117.188;2023-06-22T02:35:10;99326.88;;;19.64;84.25
37848;BME280;23688;33.130;-117.188;2023-06-22T02:37:38;99342.75;;;19.81;83.46
37848;BME280;23688;33.130;-117.188;2023-06-22T02:40:08;99336.56;;;19.70;83.76
37848;BME280;23688;33.130;-117.188;2023-06-22T02:42:39;99331.25;;;19.54;85.39
37848;BME280;23688;33.130;-117.188;2023-06-22T02:45:05;99325.84;;;19.19;88.15
37848;BME280;23688;33.130;-117.188;2023-06-22T02:47:32;99342.53;;;19.19;88.63
37848;BME280;23688;33.130;-117.188;2023-06-22T02:49:58;99348.50;;;18.85;90.56
37848;BME280;23688;33.130;-117.188;2023-06-22T02:52:25;99351.09;;;18.78;90.96
37848;BME280;23688;33.130;-117.188;2023-06-22T02:54:54;99341.47;;;18.80;90.06
37848;BME280;23688;33.130;-117.188;2023-06-22T02:57:20;99342.25;;;18.72;90.15
37848;BME280;23688;33.130;-117.188;2023-06-22T02:59:46;99336.84;;;18.50;92.21
37848;BME280;23688;33.130;-117.188;2023-06-22T03:02:13;99343.00;;;18.46;92.03
37848;BME280;23688;33.130;-117.188;2023-06-22T03:04:39;99347.22;;;18.30;93.13
37848;BME280;23688;33.130;-117.188;2023-06-22T03:07:05;99353.47;;;18.42;92.71
37848;BME280;23688;33.130;-117.188;2023-06-22T03:09:32;99349.97;;;18.46;92.16
37848;BME280;23688;33.130;-117.188;2023-06-22T03:11:58;99353.41;;;18.35;92.73
37848;BME280;23688;33.130;-117.188;2023-06-22T03:14:24;99347.16;;;18.20;93.65
37848;BME280;23688;33.130;-117.188;2023-06-22T03:16:51;99347.94;;;18.11;94.29
37848;BME280;23688;33.130;-117.188;2023-06-22T03:19:17;99355.09;;;18.24;94.23
37848;BME280;23688;33.130;-117.188;2023-06-22T03:21:45;99360.25;;;18.12;94.77
37848;BME280;23688;33.130;-117.188;2023-06-22T03:24:11;99358.38;;;18.02;95.88
37848;BME280;23688;33.130;-117.188;2023-06-22T03:26:37;99338.25;;;18.02;95.56
37848;BME280;23688;33.130;-117.188;2023-06-22T03:29:04;99358.53;;;18.17;95.17
37848;BME280;23688;33.130;-117.188;2023-06-22T03:31:30;99364.59;;;18.10;95.71
37848;BME280;23688;33.130;-117.188;2023-06-22T03:33:56;99346.69;;;17.72;98.17
37848;BME280;23688;33.130;-117.188;2023-06-22T03:36:23;99351.75;;;17.53;100.00
37848;BME280;23688;33.130;-117.188;2023-06-22T03:38:51;99361.91;;;17.24;100.00
37848;BME280;23688;33.130;-117.188;2023-06-22T03:41:17;99379.22;;;17.10;100.00
37848;BME280;23688;33.130;-117.188;2023-06-22T03:43:43;99370.25;;;16.94;100.00
37848;BME280;23688;33.130;-117.188;2023-06-22T03:46:10;99367.69;;;16.99;100.00
37848;BME280;23688;33.130;-117.188;2023-06-22T03:48:37;99369.28;;;16.86;100.00
37848;BME280;23688;33.130;-117.188;2023-06-22T03:51:04;99373.25;;;16.62;100.00
37848;BME280;23688;33.130;-117.188;2023-06-22T03:53:31;99382.00;;;16.61;100.00
37848;BME280;23688;33.130;-117.188;2023-06-22T03:55:57;99380.16;;;16.57;100.00
37848;BME280;23688;33.130;-117.188;2023-06-22T03:58:23;99376.63;;;16.54;100.00
37848;BME280;23688;33.130;-117.188;2023-06-22T04:00:51;99384.56;;;16.58;100.00
37848;BME280;23688;33.130;-117.188;2023-06-22T04:03:18;99389.03;;;16.64;100.00
37848;BME280;23688;33.130;-117.188;2023-06-22T04:05:45;99386.69;;;16.81;100.00
37848;BME280;23688;33.130;-117.188;2023-06-22T04:08:13;99387.38;;;16.72;100.00
37848;BME280;23688;33.130;-117.188;2023-06-22T04:10:39;99396.28;;;16.80;100.00
37848;BME280;23688;33.130;-117.188;2023-06-22T04:13:06;99391.97;;;16.84;100.00
37848;BME280;23688;33.130;-117.188;2023-06-22T04:15:32;99400.09;;;17.02;100.00
37848;BME280;23688;33.130;-117.188;2023-06-22T04:17:59;99387.09;;;17.11;100.00
37848;BME280;23688;33.130;-117.188;2023-06-22T04:20:25;99403.97;;;17.29;100.00
37848;BME280;23688;33.130;-117.188;2023-06-22T04:22:55;99395.09;;;17.19;100.00
37848;BME280;23688;33.130;-117.188;2023-06-22T04:25:21;99414.41;;;17.27;100.00
37848;BME280;23688;33.130;-117.188;2023-06-22T04:27:48;99403.97;;;17.33;100.00
37848;BME280;23688;33.130;-117.188;2023-06-22T04:30:15;99395.13;;;17.22;100.00
37848;BME280;23688;33.130;-117.188;2023-06-22T04:32:42;99418.13;;;17.45;100.00
37848;BME280;23688;33.130;-117.188;2023-06-22T04:35:10;99418.22;;;17.52;100.00
37848;BME280;23688;33.130;-117.188;2023-06-22T04:37:37;99415.56;;;17.49;100.00
37848;BME280;23688;33.130;-117.188;2023-06-22T04:40:05;99422.47;;;17.43;100.00
37848;BME280;23688;33.130;-117.188;2023-06-22T04:42:34;99417.94;;;17.31;100.00
37848;BME280;23688;33.130;-117.188;2023-06-22T04:45:02;99419.63;;;17.24;100.00
37848;BME280;23688;33.130;-117.188;2023-06-22T04:47:29;99409.97;;;17.22;100.00
37848;BME280;23688;33.130;-117.188;2023-06-22T04:49:55;99421.56;;;17.39;100.00
37848;BME280;23688;33.130;-117.188;2023-06-22T04:52:21;99397.03;;;17.36;100.00
37848;BME280;23688;33.130;-117.188;2023-06-22T04:54:48;99429.59;;;17.51;100.00
37848;BME280;23688;33.130;-117.188;2023-06-22T04:57:16;99415.53;;;17.46;100.00
37848;BME280;23688;33.130;-117.188;2023-06-22T04:59:42;99431.28;;;17.48;100.00
37848;BME280;23688;33.130;-117.188;2023-06-22T05:02:09;99416.31;;;17.41;100.00
37848;BME280;23688;33.130;-117.188;2023-06-22T05:04:36;99421.63;;;17.45;100.00
37848;BME280;23688;33.130;-117.188;2023-06-22T05:07:04;99418.94;;;17.39;100.00
37848;BME280;23688;33.130;-117.188;2023-06-22T05:09:31;99430.34;;;17.41;100.00
37848;BME280;23688;33.130;-117.188;2023-06-22T05:11:59;99430.22;;;17.33;100.00
37848;BME280;23688;33.130;-117.188;2023-06-22T05:14:28;99420.47;;;17.22;100.00
37848;BME280;23688;33.130;-117.188;2023-06-22T05:16:55;99417.63;;;17.05;100.00
37848;BME280;23688;33.130;-117.188;2023-06-22T05:19:24;99430.63;;;16.97;100.00
37848;BME280;23688;33.130;-117.188;2023-06-22T05:21:51;99413.03;;;16.90;100.00
37848;BME280;23688;33.130;-117.188;2023-06-22T05:24:17;99416.53;;;16.90;100.00
37848;BME280;23688;33.130;-117.188;2023-06-22T05:26:43;99402.44;;;16.84;100.00
37848;BME280;23688;33.130;-117.188;2023-06-22T05:29:10;99412.06;;;16.83;100.00
37848;BME280;23688;33.130;-117.188;2023-06-22T05:31:36;99411.91;;;16.76;100.00
37848;BME280;23688;33.130;-117.188;2023-06-22T05:34:02;99410.97;;;16.72;100.00
37848;BME280;23688;33.130;-117.188;2023-06-22T05:36:29;99408.28;;;16.67;100.00
37848;BME280;23688;33.130;-117.188;2023-06-22T05:38:56;99417.03;;;16.66;100.00
37848;BME280;23688;33.130;-117.188;2023-06-22T05:41:24;99398.56;;;16.60;100.00
37848;BME280;23688;33.130;-117.188;2023-06-22T05:43:50;99395.91;;;16.57;100.00
37848;BME280;23688;33.130;-117.188;2023-06-22T05:46:17;99404.66;;;16.59;100.00
37848;BME280;23688;33.130;-117.188;2023-06-22T05:48:43;99397.50;;;16.47;100.00
37848;BME280;23688;33.130;-117.188;2023-06-22T05:51:09;99408.94;;;16.51;100.00
37848;BME280;23688;33.130;-117.188;2023-06-22T05:53:36;99398.28;;;16.42;100.00
37848;BME280;23688;33.130;-117.188;2023-06-22T05:56:02;99385.09;;;16.37;100.00
37848;BME280;23688;33.130;-117.188;2023-06-22T05:58:29;99401.69;;;16.36;100.00
37848;BME280;23688;33.130;-117.188;2023-06-22T06:00:56;99397.16;;;16.27;100.00
37848;BME280;23688;33.130;-117.188;2023-06-22T06:03:22;99400.59;;;16.23;100.00
37848;BME280;23688;33.130;-117.188;2023-06-22T06:05:48;99407.63;;;16.26;100.00
37848;BME280;23688;33.130;-117.188;2023-06-22T06:08:15;99408.44;;;16.22;100.00
37848;BME280;23688;33.130;-117.188;2023-06-22T06:10:41;99401.34;;;16.16;100.00
37848;BME280;23688;33.130;-117.188;2023-06-22T06:13:07;99406.56;;;16.16;100.00
37848;BME280;23688;33.130;-117.188;2023-06-22T06:15:34;99403.81;;;16.07;100.00
37848;BME280;23688;33.130;-117.188;2023-06-22T06:18:00;99402.81;;;16.02;100.00
37848;BME280;23688;33.130;-117.188;2023-06-22T06:20:30;99412.44;;;16.01;100.00
37848;BME280;23688;33.130;-117.188;2023-06-22T06:22:56;99421.09;;;15.97;100.00
37848;BME280;23688;33.130;-117.188;2023-06-22T06:25:23;99414.91;;;15.94;100.00
37848;BME280;23688;33.130;-117.188;2023-06-22T06:27:52;99423.72;;;15.99;100.00
37848;BME280;23688;33.130;-117.188;2023-06-22T06:30:20;99418.50;;;15.99;100.00
37848;BME280;23688;33.130;-117.188;2023-06-22T06:32:48;99413.16;;;15.93;100.00
37848;BME280;23688;33.130;-117.188;2023-06-22T06:35:15;99405.19;;;15.87;100.00
37848;BME280;23688;33.130;-117.188;2023-06-22T06:37:44;99408.56;;;15.82;100.00
37848;BME280;23688;33.130;-117.188;2023-06-22T06:40:11;99423.63;;;15.94;100.00
37848;BME280;23688;33.130;-117.188;2023-06-22T06:42:39;99409.41;;;15.80;100.00
37848;BME280;23688;33.130;-117.188;2023-06-22T06:45:08;99429.66;;;15.89;100.00
37848;BME280;23688;33.130;-117.188;2023-06-22T06:47:34;99425.16;;;15.81;100.00
37848;BME280;23688;33.130;-117.188;2023-06-22T06:50:01;99428.59;;;15.79;100.00
37848;BME280;23688;33.130;-117.188;2023-06-22T06:52:27;99426.72;;;15.72;100.00
37848;BME280;23688;33.130;-117.188;2023-06-22T06:54:53;99422.16;;;15.65;100.00
37848;BME280;23688;33.130;-117.188;2023-06-22T06:57:19;99414.22;;;15.58;100.00
37848;BME280;23688;33.130;-117.188;2023-06-22T06:59:46;99426.47;;;15.61;100.00
37848;BME280;23688;33.130;-117.188;2023-06-22T07:02:12;99436.13;;;15.63;100.00
37848;BME280;23688;33.130;-117.188;2023-06-22T07:04:40;99425.53;;;15.57;99.94
37848;BME280;23688;33.130;-117.188;2023-06-22T07:07:06;99420.28;;;15.56;100.00
37848;BME280;23688;33.130;-117.188;2023-06-22T07:09:33;99412.34;;;15.53;100.00
37848;BME280;23688;33.130;-117.188;2023-06-22T07:11:59;99406.31;;;15.57;100.00
37848;BME280;23688;33.130;-117.188;2023-06-22T07:14:25;99406.38;;;15.60;100.00
37848;BME280;23688;33.130;-117.188;2023-06-22T07:16:51;99391.50;;;15.57;100.00
37848;BME280;23688;33.130;-117.188;2023-06-22T07:19:27;99405.66;;;15.67;100.00
37848;BME280;23688;33.130;-117.188;2023-06-22T07:21:54;99409.84;;;15.59;100.00
37848;BME280;23688;33.130;-117.188;2023-06-22T07:24:24;99413.22;;;15.52;100.00
37848;BME280;23688;33.130;-117.188;2023-06-22T07:26:51;99422.66;;;15.44;100.00
37848;BME280;23688;33.130;-117.188;2023-06-22T07:29:17;99405.94;;;15.37;100.00
37848;BME280;23688;33.130;-117.188;2023-06-22T07:31:45;99393.69;;;15.36;100.00
37848;BME280;23688;33.130;-117.188;2023-06-22T07:34:12;99404.47;;;15.51;100.00
37848;BME280;23688;33.130;-117.188;2023-06-22T07:36:38;99405.41;;;15.55;100.00
37848;BME280;23688;33.130;-117.188;2023-06-22T07:39:05;99401.09;;;15.57;100.00
37848;BME280;23688;33.130;-117.188;2023-06-22T07:41:32;99390.69;;;15.60;100.00
37848;BME280;23688;33.130;-117.188;2023-06-22T07:43:58;99387.09;;;15.53;100.00
37848;BME280;23688;33.130;-117.188;2023-06-22T07:46:25;99395.00;;;15.58;100.00
37848;BME280;23688;33.130;-117.188;2023-06-22T07:48:51;99397.59;;;15.58;100.00
37848;BME280;23688;33.130;-117.188;2023-06-22T07:51:17;99394.16;;;15.59;100.00
37848;BME280;23688;33.130;-117.188;2023-06-22T07:53:44;99381.91;;;15.58;100.00
37848;BME280;23688;33.130;-117.188;2023-06-22T07:56:11;99371.56;;;15.64;100.00
37848;BME280;23688;33.130;-117.188;2023-06-22T07:58:37;99369.09;;;15.70;100.00
37848;BME280;23688;33.130;-117.188;2023-06-22T08:01:03;99360.34;;;15.70;100.00
37848;BME280;23688;33.130;-117.188;2023-06-22T08:03:30;99368.34;;;15.77;100.00
37848;BME280;23688;33.130;-117.188;2023-06-22T08:05:56;99369.25;;;15.79;100.00
37848;BME280;23688;33.130;-117.188;2023-06-22T08:08:23;99363.84;;;15.70;100.00
37848;BME280;23688;33.130;-117.188;2023-06-22T08:10:49;99375.22;;;15.71;100.00
37848;BME280;23688;33.130;-117.188;2023-06-22T08:13:16;99386.41;;;15.65;100.00
37848;BME280;23688;33.130;-117.188;2023-06-22T08:15:42;99382.91;;;15.63;100.00
37848;BME280;23688;33.130;-117.188;2023-06-22T08:18:08;99388.16;;;15.65;100.00
37848;BME280;23688;33.130;-117.188;2023-06-22T08:20:35;99370.63;;;15.60;100.00
37848;BME280;23688;33.130;-117.188;2023-06-22T08:23:01;99372.63;;;15.71;100.00
37848;BME280;23688;33.130;-117.188;2023-06-22T08:25:35;99363.94;;;15.75;100.00
37848;BME280;23688;33.130;-117.188;2023-06-22T08:28:03;99366.72;;;15.84;100.00
37848;BME280;23688;33.130;-117.188;2023-06-22T08:30:30;99371.97;;;15.84;100.00
37848;BME280;23688;33.130;-117.188;2023-06-22T08:32:56;99381.78;;;15.96;100.00
37848;BME280;23688;33.130;-117.188;2023-06-22T08:35:23;99388.81;;;15.98;100.00
37848;BME280;23688;33.130;-117.188;2023-06-22T08:37:50;99392.44;;;16.07;100.00
37848;BME280;23688;33.130;-117.188;2023-06-22T08:40:21;99384.75;;;16.14;100.00
37848;BME280;23688;33.130;-117.188;2023-06-22T08:42:49;99387.47;;;16.22;100.00
37848;BME280;23688;33.130;-117.188;2023-06-22T08:45:16;99378.75;;;16.23;100.00
37848;BME280;23688;33.130;-117.188;2023-06-22T08:47:42;99363.84;;;16.19;100.00
37848;BME280;23688;33.130;-117.188;2023-06-22T08:50:12;99368.41;;;16.29;100.00
37848;BME280;23688;33.130;-117.188;2023-06-22T08:52:40;99367.50;;;16.29;100.00
37848;BME280;23688;33.130;-117.188;2023-06-22T08:55:09;99368.34;;;16.27;100.00
37848;BME280;23688;33.130;-117.188;2023-06-22T08:57:36;99368.34;;;16.27;100.00
37848;BME280;23688;33.130;-117.188;2023-06-22T09:00:07;99360.53;;;16.29;100.00
37848;BME280;23688;33.130;-117.188;2023-06-22T09:02:47;99360.47;;;16.26;100.00
37848;BME280;23688;33.130;-117.188;2023-06-22T09:05:13;99360.41;;;16.23;100.00
37848;BME280;23688;33.130;-117.188;2023-06-22T09:07:40;99360.31;;;16.15;100.00
37848;BME280;23688;33.130;-117.188;2023-06-22T09:10:08;99355.66;;;15.99;100.00
37848;BME280;23688;33.130;-117.188;2023-06-22T09:12:34;99359.97;;;15.95;100.00
37848;BME280;23688;33.130;-117.188;2023-06-22T09:15:02;99362.53;;;15.94;100.00
37848;BME280;23688;33.130;-117.188;2023-06-22T09:17:30;99364.31;;;15.95;100.00
37848;BME280;23688;33.130;-117.188;2023-06-22T09:19:57;99345.69;;;15.79;100.00
37848;BME280;23688;33.130;-117.188;2023-06-22T09:22:23;99363.28;;;15.87;100.00
37848;BME280;23688;33.130;-117.188;2023-06-22T09:24:55;99358.91;;;15.86;100.00
37848;BME280;23688;33.130;-117.188;2023-06-22T09:27:22;99351.06;;;15.86;100.00
37848;BME280;23688;33.130;-117.188;2023-06-22T09:29:50;99352.66;;;15.77;100.00
37848;BME280;23688;33.130;-117.188;2023-06-22T09:32:16;99363.09;;;15.76;100.00
37848;BME280;23688;33.130;-117.188;2023-06-22T09:34:43;99342.09;;;15.71;100.00
37848;BME280;23688;33.130;-117.188;2023-06-22T09:37:09;99343.72;;;15.68;100.00
37848;BME280;23688;33.130;-117.188;2023-06-22T09:39:35;99343.56;;;15.58;100.00
37848;BME280;23688;33.130;-117.188;2023-06-22T09:42:02;99370.78;;;15.68;100.00
37848;BME280;23688;33.130;-117.188;2023-06-22T09:44:31;99362.84;;;15.65;100.00
37848;BME280;23688;33.130;-117.188;2023-06-22T09:46:57;99367.22;;;15.63;100.00
37848;BME280;23688;33.130;-117.188;2023-06-22T09:49:23;99351.31;;;15.54;100.00
37848;BME280;23688;33.130;-117.188;2023-06-22T09:51:50;99362.72;;;15.57;100.00
37848;BME280;23688;33.130;-117.188;2023-06-22T09:54:16;99369.81;;;15.63;100.00
37848;BME280;23688;33.130;-117.188;2023-06-22T09:56:43;99375.06;;;15.63;100.00
37848;BME280;23688;33.130;-117.188;2023-06-22T09:59:09;99338.09;;;15.48;100.00
37848;BME280;23688;33.130;-117.188;2023-06-22T10:01:36;99357.63;;;15.65;100.00
37848;BME280;23688;33.130;-117.188;2023-06-22T10:04:02;99363.81;;;15.69;100.00
37848;BME280;23688;33.130;-117.188;2023-06-22T10:06:30;99350.84;;;15.73;100.00
37848;BME280;23688;33.130;-117.188;2023-06-22T10:08:56;99356.16;;;15.78;100.00
37848;BME280;23688;33.130;-117.188;2023-06-22T10:11:23;99357.88;;;15.77;100.00
37848;BME280;23688;33.130;-117.188;2023-06-22T10:13:55;99357.84;;;15.74;100.00
37848;BME280;23688;33.130;-117.188;2023-06-22T10:16:23;99350.97;;;15.81;100.00
37848;BME280;23688;33.130;-117.188;2023-06-22T10:18:50;99338.72;;;15.78;100.00
37848;BME280;23688;33.130;-117.188;2023-06-22T10:21:16;99358.88;;;15.84;100.00
37848;BME280;23688;33.130;-117.188;2023-06-22T10:23:42;99365.22;;;15.97;100.00
37848;BME280;23688;33.130;-117.188;2023-06-22T10:26:08;99348.66;;;15.98;100.00
37848;BME280;23688;33.130;-117.188;2023-06-22T10:28:35;99346.97;;;16.01;100.00
37848;BME280;23688;33.130;-117.188;2023-06-22T10:31:01;99354.06;;;16.09;100.00
37848;BME280;23688;33.130;-117.188;2023-06-22T10:33:27;99361.09;;;16.10;100.00
37848;BME280;23688;33.130;-117.188;2023-06-22T10:35:54;99351.50;;;16.12;100.00
37848;BME280;23688;33.130;-117.188;2023-06-22T10:38:20;99355.03;;;16.14;100.00
37848;BME280;23688;33.130;-117.188;2023-06-22T10:40:47;99348.13;;;16.17;100.00
37848;BME280;23688;33.130;-117.188;2023-06-22T10:43:13;99352.41;;;16.12;100.00
37848;BME280;23688;33.130;-117.188;2023-06-22T10:45:39;99356.00;;;16.20;100.00
37848;BME280;23688;33.130;-117.188;2023-06-22T10:48:05;99348.91;;;16.13;100.00
37848;BME280;23688;33.130;-117.188;2023-06-22T10:50:32;99343.66;;;16.13;100.00
37848;BME280;23688;33.130;-117.188;2023-06-22T10:52:58;99336.69;;;16.14;100.00
37848;BME280;23688;33.130;-117.188;2023-06-22T10:55:25;99338.47;;;16.15;100.00
37848;BME280;23688;33.130;-117.188;2023-06-22T10:57:51;99340.34;;;16.22;100.00
37848;BME280;23688;33.130;-117.188;2023-06-22T11:00:18;99340.28;;;16.20;100.00
37848;BME280;23688;33.130;-117.188;2023-06-22T11:02:44;99343.84;;;16.24;100.00
37848;BME280;23688;33.130;-117.188;2023-06-22T11:05:11;99342.97;;;16.23;100.00
37848;BME280;23688;33.130;-117.188;2023-06-22T11:07:41;99344.75;;;16.24;100.00
37848;BME280;23688;33.130;-117.188;2023-06-22T11:10:07;99339.41;;;16.20;100.00
37848;BME280;23688;33.130;-117.188;2023-06-22T11:12:34;99346.38;;;16.18;100.00
37848;BME280;23688;33.130;-117.188;2023-06-22T11:15:01;99352.41;;;16.12;100.00
37848;BME280;23688;33.130;-117.188;2023-06-22T11:17:27;99354.94;;;16.09;100.00
37848;BME280;23688;33.130;-117.188;2023-06-22T11:19:53;99340.88;;;16.02;100.00
37848;BME280;23688;33.130;-117.188;2023-06-22T11:22:20;99348.66;;;15.98;100.00
37848;BME280;23688;33.130;-117.188;2023-06-22T11:24:46;99324.84;;;15.84;100.00
37848;BME280;23688;33.130;-117.188;2023-06-22T11:27:13;99338.81;;;15.83;100.00
37848;BME280;23688;33.130;-117.188;2023-06-22T11:29:39;99329.03;;;15.73;100.00
37848;BME280;23688;33.130;-117.188;2023-06-22T11:32:07;99321.91;;;15.67;100.00
37848;BME280;23688;33.130;-117.188;2023-06-22T11:34:33;99332.31;;;15.64;100.00
37848;BME280;23688;33.130;-117.188;2023-06-22T11:37:00;99327.88;;;15.58;100.00
37848;BME280;23688;33.130;-117.188;2023-06-22T11:39:26;99332.94;;;15.51;100.00
37848;BME280;23688;33.130;-117.188;2023-06-22T11:41:53;99328.38;;;15.40;100.00
37848;BME280;23688;33.130;-117.188;2023-06-22T11:44:19;99326.50;;;15.32;100.00
37848;BME280;23688;33.130;-117.188;2023-06-22T11:46:45;99336.88;;;15.29;100.00
37848;BME280;23688;33.130;-117.188;2023-06-22T11:49:12;99345.63;;;15.29;100.00
37848;BME280;23688;33.130;-117.188;2023-06-22T11:51:38;99336.72;;;15.19;100.00
37848;BME280;23688;33.130;-117.188;2023-06-22T11:54:04;99349.78;;;15.19;100.00
37848;BME280;23688;33.130;-117.188;2023-06-22T11:56:30;99349.78;;;15.21;100.00
37848;BME280;23688;33.130;-117.188;2023-06-22T11:58:57;99346.09;;;15.11;100.00
37848;BME280;23688;33.130;-117.188;2023-06-22T12:01:23;99341.69;;;15.09;100.00
37848;BME280;23688;33.130;-117.188;2023-06-22T12:03:50;99361.69;;;15.07;100.00
37848;BME280;23688;33.130;-117.188;2023-06-22T12:06:17;99356.41;;;15.04;100.00
37848;BME280;23688;33.130;-117.188;2023-06-22T12:08:43;99365.06;;;15.01;100.00
37848;BME280;23688;33.130;-117.188;2023-06-22T12:11:09;99362.34;;;14.95;100.00
37848;BME280;23688;33.130;-117.188;2023-06-22T12:13:36;99356.09;;;14.90;100.00
37848;BME280;23688;33.130;-117.188;2023-06-22T12:16:02;99376.34;;;14.98;100.00
37848;BME280;23688;33.130;-117.188;2023-06-22T12:18:28;99369.28;;;14.94;100.00
37848;BME280;23688;33.130;-117.188;2023-06-22T12:20:55;99369.16;;;14.88;100.00
37848;BME280;23688;33.130;-117.188;2023-06-22T12:23:21;99347.94;;;14.74;100.00
37848;BME280;23688;33.130;-117.188;2023-06-22T12:25:47;99363.00;;;14.86;100.00
37848;BME280;23688;33.130;-117.188;2023-06-22T12:28:14;99377.09;;;14.93;100.00
37848;BME280;23688;33.130;-117.188;2023-06-22T12:30:40;99387.41;;;14.87;100.00